createdAt,value
2023-04-21T00:01:55.304Z,7.80
2023-04-21T00:04:22.391Z,7.80
2023-04-21T00:06:50.681Z,7.70
2023-04-21T00:09:18.762Z,7.70
2023-04-21T00:11:45.651Z,7.50
2023-04-21T00:14:12.468Z,7.50
2023-04-21T00:16:39.321Z,7.40
2023-04-21T00:19:07.493Z,7.30
2023-04-21T00:21:35.076Z,7.20
2023-04-21T00:24:01.957Z,7.10
2023-04-21T00:26:28.756Z,7.00
2023-04-21T00:28:55.599Z,7.00
2023-04-21T00:31:22.396Z,6.90
2023-04-21T00:33:49.150Z,6.90
2023-04-21T00:36:16.018Z,6.80
2023-04-21T00:38:42.857Z,6.80
2023-04-21T00:41:09.556Z,6.70
2023-04-21T00:43:36.713Z,6.70
2023-04-21T00:46:03.568Z,6.60
2023-04-21T00:48:30.630Z,6.60
2023-04-21T00:50:57.441Z,6.50
2023-04-21T00:53:24.212Z,6.50
2023-04-21T00:55:51.289Z,6.50
2023-04-21T00:58:18.114Z,6.40
2023-04-21T01:00:45.515Z,6.50
2023-04-21T01:03:12.646Z,6.40
2023-04-21T01:05:39.858Z,6.30
2023-04-21T01:08:06.859Z,6.30
2023-04-21T01:10:33.661Z,6.30
2023-04-21T01:13:00.534Z,6.30
2023-04-21T01:15:30.842Z,6.30
2023-04-21T01:17:58.185Z,6.30
2023-04-21T01:20:25.049Z,6.30
2023-04-21T01:22:51.839Z,6.20
2023-04-21T01:25:19.809Z,6.20
2023-04-21T01:27:46.735Z,6.20
2023-04-21T01:30:13.519Z,6.20
2023-04-21T01:32:40.403Z,6.20
2023-04-21T01:35:07.573Z,6.20
2023-04-21T01:37:35.044Z,6.20
2023-04-21T01:40:06.050Z,6.20
2023-04-21T01:42:34.022Z,6.20
2023-04-21T01:45:00.927Z,6.10
2023-04-21T01:47:27.828Z,6.10
2023-04-21T01:49:54.661Z,6.10
2023-04-21T01:52:21.856Z,6.10
2023-04-21T01:54:48.768Z,6.00
2023-04-21T01:57:16.563Z,6.00
2023-04-21T01:59:44.081Z,6.00
2023-04-21T02:02:11.220Z,5.90
2023-04-21T02:04:38.386Z,5.90
2023-04-21T02:07:05.280Z,5.90
2023-04-21T02:09:32.343Z,5.90
2023-04-21T02:11:59.238Z,5.90
2023-04-21T02:14:26.339Z,5.90
2023-04-21T02:16:53.377Z,6.00
2023-04-21T02:19:20.807Z,6.00
2023-04-21T02:21:47.780Z,6.00
2023-04-21T02:24:14.656Z,6.00
2023-04-21T02:26:41.603Z,5.90
2023-04-21T02:29:08.354Z,5.90
2023-04-21T02:31:46.087Z,5.90
2023-04-21T02:34:21.870Z,5.80
2023-04-21T02:36:48.801Z,5.80
2023-04-21T02:39:15.882Z,5.80
2023-04-21T02:41:42.677Z,5.80
2023-04-21T02:44:09.433Z,5.70
2023-04-21T02:46:36.268Z,5.70
2023-04-21T02:49:03.287Z,5.70
2023-04-21T02:51:29.984Z,5.70
2023-04-21T02:53:56.992Z,5.70
2023-04-21T02:56:23.774Z,5.60
2023-04-21T02:58:50.455Z,5.60
2023-04-21T03:01:17.270Z,5.60
2023-04-21T03:03:44.277Z,5.60
2023-04-21T03:06:11.062Z,5.50
2023-04-21T03:08:37.894Z,5.50
2023-04-21T03:11:04.748Z,5.40
2023-04-21T03:13:31.629Z,5.40
2023-04-21T03:15:58.409Z,5.30
2023-04-21T03:18:25.332Z,5.30
2023-04-21T03:20:52.288Z,5.30
2023-04-21T03:23:19.058Z,5.30
2023-04-21T03:25:45.838Z,5.30
2023-04-21T03:28:12.586Z,5.20
2023-04-21T03:30:39.587Z,5.20
2023-04-21T03:33:06.533Z,5.20
2023-04-21T03:35:34.326Z,5.20
2023-04-21T03:38:03.698Z,5.20
2023-04-21T03:40:30.787Z,5.20
2023-04-21T03:42:57.541Z,5.10
2023-04-21T03:45:24.494Z,5.10
2023-04-21T03:47:55.859Z,5.10
2023-04-21T03:50:23.506Z,5.10
2023-04-21T03:52:50.193Z,5.20
2023-04-21T03:55:17.240Z,5.20
2023-04-21T03:57:44.080Z,5.10
2023-04-21T04:00:12.683Z,5.10
2023-04-21T04:02:40.118Z,5.10
2023-04-21T04:05:07.573Z,5.00
2023-04-21T04:07:35.408Z,5.00
2023-04-21T04:10:02.186Z,5.00
2023-04-21T04:12:29.065Z,5.00
2023-04-21T04:14:55.760Z,5.00
2023-04-21T04:17:22.747Z,5.00
2023-04-21T04:19:49.494Z,5.00
2023-04-21T04:22:16.242Z,5.00
2023-04-21T04:24:45.062Z,5.00
2023-04-21T04:27:14.098Z,5.00
2023-04-21T04:29:41.251Z,5.00
2023-04-21T04:32:10.958Z,5.00
2023-04-21T04:34:38.470Z,5.00
2023-04-21T04:37:06.485Z,5.00
2023-04-21T04:39:33.613Z,4.90
2023-04-21T04:42:01.332Z,5.00
2023-04-21T04:44:28.270Z,4.90
2023-04-21T04:46:55.288Z,4.90
2023-04-21T04:49:24.041Z,4.90
2023-04-21T04:51:51.084Z,5.00
2023-04-21T04:54:18.172Z,5.00
2023-04-21T04:56:45.194Z,5.00
2023-04-21T04:59:12.323Z,5.00
2023-04-21T05:01:40.651Z,5.10
2023-04-21T05:04:08.028Z,5.00
2023-04-21T05:06:34.925Z,5.10
2023-04-21T05:09:01.798Z,5.10
2023-04-21T05:11:28.558Z,5.20
2023-04-21T05:13:55.625Z,5.20
2023-04-21T05:16:22.572Z,5.20
2023-04-21T05:18:53.753Z,5.30
2023-04-21T05:21:27.742Z,5.40
2023-04-21T05:23:59.176Z,5.50
2023-04-21T05:26:27.682Z,5.50
2023-04-21T05:28:58.752Z,5.60
2023-04-21T05:31:26.234Z,5.60
2023-04-21T05:33:53.316Z,5.80
2023-04-21T05:36:20.515Z,5.80
2023-04-21T05:38:47.492Z,5.80
2023-04-21T05:41:14.349Z,5.80
2023-04-21T05:43:41.023Z,5.80
2023-04-21T05:46:11.458Z,5.90
2023-04-21T05:48:38.414Z,6.00
2023-04-21T05:51:10.743Z,6.00
2023-04-21T05:53:42.051Z,6.10
2023-04-21T05:56:09.802Z,6.20
2023-04-21T05:58:37.085Z,6.40
2023-04-21T06:01:04.650Z,6.50
2023-04-21T06:03:32.259Z,6.60
2023-04-21T06:06:01.183Z,6.70
2023-04-21T06:08:28.014Z,6.80
2023-04-21T06:10:54.883Z,6.90
2023-04-21T06:13:21.671Z,7.10
2023-04-21T06:15:48.557Z,7.30
2023-04-21T06:18:16.315Z,7.40
2023-04-21T06:20:49.580Z,7.50
2023-04-21T06:23:16.338Z,7.60
2023-04-21T06:25:43.054Z,7.60
2023-04-21T06:28:09.747Z,7.70
2023-04-21T06:30:36.501Z,7.90
2023-04-21T06:33:04.477Z,8.10
2023-04-21T06:35:31.357Z,8.30
2023-04-21T06:37:58.048Z,8.40
2023-04-21T06:40:24.748Z,8.50
2023-04-21T06:42:51.537Z,8.50
2023-04-21T06:45:18.259Z,8.40
2023-04-21T06:47:45.093Z,8.50
2023-04-21T06:50:12.250Z,8.60
2023-04-21T06:52:39.012Z,8.70
2023-04-21T06:55:06.381Z,8.70
2023-04-21T06:57:33.109Z,8.80
2023-04-21T06:59:59.942Z,8.90
2023-04-21T07:02:26.769Z,9.00
2023-04-21T07:04:53.591Z,9.10
2023-04-21T07:07:20.515Z,9.10
2023-04-21T07:09:48.416Z,9.20
2023-04-21T07:12:15.271Z,9.30
2023-04-21T07:14:42.197Z,9.40
2023-04-21T07:17:09.076Z,9.50
2023-04-21T07:19:35.960Z,9.50
2023-04-21T07:22:02.808Z,9.60
2023-04-21T07:24:29.499Z,9.70
2023-04-21T07:26:56.213Z,9.70
2023-04-21T07:29:23.097Z,9.90
2023-04-21T07:31:49.799Z,9.90
2023-04-21T07:34:16.520Z,10.10
2023-04-21T07:36:43.231Z,10.00
2023-04-21T07:39:10.668Z,10.00
2023-04-21T07:41:37.567Z,10.00
2023-04-21T07:44:04.516Z,10.00
2023-04-21T07:46:32.122Z,10.00
2023-04-21T07:49:00.493Z,9.90
2023-04-21T07:51:28.411Z,9.80
2023-04-21T07:53:55.829Z,9.80
2023-04-21T07:56:22.589Z,9.80
2023-04-21T07:58:49.353Z,9.90
2023-04-21T08:01:16.266Z,9.90
2023-04-21T08:03:43.419Z,9.80
2023-04-21T08:06:11.014Z,10.00
2023-04-21T08:08:37.915Z,10.00
2023-04-21T08:11:04.686Z,10.20
2023-04-21T08:13:32.139Z,10.10
2023-04-21T08:15:59.023Z,10.20
2023-04-21T08:18:25.834Z,10.20
2023-04-21T08:20:52.772Z,10.30
2023-04-21T08:23:20.023Z,10.20
2023-04-21T08:25:46.969Z,10.30
2023-04-21T08:28:15.595Z,10.40
2023-04-21T08:30:42.404Z,10.50
2023-04-21T08:33:13.701Z,10.70
2023-04-21T08:35:55.010Z,11.00
2023-04-21T08:38:28.400Z,11.30
2023-04-21T08:40:58.719Z,11.60
2023-04-21T08:43:26.027Z,11.80
2023-04-21T08:45:54.502Z,12.10
2023-04-21T08:48:23.696Z,12.10
2023-04-21T08:50:51.321Z,12.20
2023-04-21T08:53:18.507Z,12.20
2023-04-21T08:55:49.225Z,12.40
2023-04-21T08:58:17.995Z,12.70
2023-04-21T09:00:44.991Z,13.00
2023-04-21T09:03:23.384Z,13.40
2023-04-21T09:06:05.640Z,13.70
2023-04-21T09:08:33.712Z,13.70
2023-04-21T09:11:03.891Z,13.60
2023-04-21T09:13:33.270Z,13.70
2023-04-21T09:16:01.184Z,14.00
2023-04-21T09:18:36.992Z,14.00
2023-04-21T09:21:06.918Z,14.30
2023-04-21T09:23:50.472Z,15.00
2023-04-21T09:26:18.985Z,15.90
2023-04-21T09:28:47.480Z,16.80
2023-04-21T09:31:24.565Z,17.50
2023-04-21T09:33:58.703Z,17.60
2023-04-21T09:36:29.946Z,18.10
2023-04-21T09:39:20.651Z,18.20
2023-04-21T09:41:45.071Z,17.50
2023-04-21T09:44:11.964Z,17.40
2023-04-21T09:46:43.844Z,17.00
2023-04-21T09:49:13.841Z,16.90
2023-04-21T09:51:56.312Z,17.30
2023-04-21T09:54:33.933Z,18.00
2023-04-21T09:57:06.509Z,19.10
2023-04-21T09:59:38.052Z,19.20
2023-04-21T10:02:09.418Z,18.90
2023-04-21T10:04:38.013Z,19.40
2023-04-21T10:07:06.182Z,19.90
2023-04-21T10:09:41.903Z,19.90
2023-04-21T10:12:10.045Z,20.40
2023-04-21T10:14:36.971Z,20.90
2023-04-21T10:17:05.831Z,20.50
2023-04-21T10:19:41.604Z,20.40
2023-04-21T10:22:10.465Z,19.80
2023-04-21T10:24:42.399Z,19.70
2023-04-21T10:27:13.046Z,19.20
2023-04-21T10:29:52.740Z,18.90
2023-04-21T10:32:42.865Z,19.30
2023-04-21T10:35:10.779Z,19.10
2023-04-21T10:37:37.650Z,18.50
2023-04-21T10:40:09.426Z,18.60
2023-04-21T10:42:37.027Z,19.50
2023-04-21T10:45:09.140Z,19.90
2023-04-21T10:47:54.012Z,20.00
2023-04-21T10:50:22.479Z,20.00
2023-04-21T10:52:56.348Z,20.20
2023-04-21T10:55:27.013Z,20.30
2023-04-21T10:57:54.044Z,20.10
2023-04-21T11:00:23.279Z,20.70
2023-04-21T11:03:01.876Z,21.20
2023-04-21T11:05:36.383Z,21.60
2023-04-21T11:08:11.965Z,21.80
2023-04-21T11:10:52.417Z,22.30
2023-04-21T11:13:27.240Z,21.70
2023-04-21T11:16:07.490Z,20.90
2023-04-21T11:18:45.347Z,20.00
2023-04-21T11:21:18.547Z,19.50
2023-04-21T11:23:55.926Z,19.70
2023-04-21T11:26:40.035Z,19.80
2023-04-21T11:29:08.514Z,19.70
2023-04-21T11:31:36.922Z,19.90
2023-04-21T11:34:07.539Z,20.00
2023-04-21T11:36:45.367Z,20.30
2023-04-21T11:39:15.640Z,20.20
2023-04-21T11:41:48.784Z,20.10
2023-04-21T11:44:41.067Z,20.10
2023-04-21T11:47:22.387Z,20.10
2023-04-21T11:49:50.542Z,20.00
2023-04-21T11:52:41.276Z,20.30
2023-04-21T11:55:17.956Z,20.90
2023-04-21T11:57:44.886Z,21.10
2023-04-21T12:00:16.844Z,21.10
2023-04-21T12:02:44.497Z,21.10
2023-04-21T12:05:12.913Z,20.80
2023-04-21T12:07:43.022Z,20.80
2023-04-21T12:10:14.896Z,21.30
2023-04-21T12:12:42.747Z,21.90
2023-04-21T12:15:12.868Z,22.60
2023-04-21T12:17:50.669Z,22.50
2023-04-21T12:20:24.754Z,22.10
2023-04-21T12:22:52.524Z,22.20
2023-04-21T12:25:19.382Z,22.50
2023-04-21T12:27:49.693Z,22.40
2023-04-21T12:30:17.214Z,22.30
2023-04-21T12:32:44.146Z,22.40
2023-04-21T12:35:11.321Z,22.60
2023-04-21T12:37:38.081Z,23.00
2023-04-21T12:40:05.503Z,23.30
2023-04-21T12:42:32.196Z,23.40
2023-04-21T12:44:59.045Z,23.50
2023-04-21T12:47:25.976Z,24.00
2023-04-21T12:49:52.726Z,23.50
2023-04-21T12:52:19.620Z,23.20
2023-04-21T12:54:46.524Z,22.80
2023-04-21T12:57:13.723Z,22.20
2023-04-21T12:59:40.530Z,21.70
2023-04-21T13:02:07.500Z,21.40
2023-04-21T13:04:34.454Z,21.50
2023-04-21T13:07:01.466Z,21.70
2023-04-21T13:09:30.141Z,22.20
2023-04-21T13:11:57.109Z,22.80
2023-04-21T13:14:24.204Z,23.10
2023-04-21T13:16:51.234Z,22.80
2023-04-21T13:19:17.978Z,22.40
2023-04-21T13:21:45.251Z,22.00
2023-04-21T13:24:14.570Z,22.10
2023-04-21T13:26:41.756Z,22.70
2023-04-21T13:29:09.044Z,22.90
2023-04-21T13:31:36.100Z,22.80
2023-04-21T13:34:03.430Z,23.30
2023-04-21T13:36:30.270Z,24.30
2023-04-21T13:38:57.072Z,23.80
2023-04-21T13:41:23.790Z,23.90
2023-04-21T13:43:50.690Z,24.50
2023-04-21T13:46:17.469Z,24.80
2023-04-21T13:48:45.986Z,25.50
2023-04-21T13:51:12.845Z,26.20
2023-04-21T13:53:39.668Z,26.50
2023-04-21T13:56:06.760Z,25.90
2023-04-21T13:58:33.640Z,25.50
2023-04-21T14:01:00.450Z,25.40
2023-04-21T14:03:27.472Z,24.90
2023-04-21T14:05:55.444Z,24.70
2023-04-21T14:08:23.056Z,24.90
2023-04-21T14:10:49.823Z,25.00
2023-04-21T14:13:27.287Z,25.20
2023-04-21T14:16:02.735Z,25.40
2023-04-21T14:18:29.620Z,25.60
2023-04-21T14:20:56.474Z,25.80
2023-04-21T14:23:23.221Z,25.90
2023-04-21T14:25:50.046Z,26.20
2023-04-21T14:28:16.752Z,26.50
2023-04-21T14:30:43.834Z,26.50
2023-04-21T14:33:10.691Z,26.60
2023-04-21T14:35:37.896Z,26.80
2023-04-21T14:38:04.730Z,26.60
2023-04-21T14:40:31.619Z,26.60
2023-04-21T14:42:58.698Z,26.80
2023-04-21T14:45:25.850Z,26.50
2023-04-21T14:47:52.995Z,26.70
2023-04-21T14:50:19.911Z,26.90
2023-04-21T14:52:49.237Z,27.20
2023-04-21T14:55:16.621Z,27.00
2023-04-21T14:57:43.557Z,26.20
2023-04-21T15:00:11.454Z,26.10
2023-04-21T15:02:39.695Z,26.00
2023-04-21T15:05:08.738Z,26.10
2023-04-21T15:07:36.045Z,26.40
2023-04-21T15:10:02.864Z,26.90
2023-04-21T15:12:29.635Z,26.80
2023-04-21T15:14:56.339Z,26.80
2023-04-21T15:17:23.230Z,26.30
2023-04-21T15:19:50.477Z,26.30
2023-04-21T15:22:17.288Z,26.10
2023-04-21T15:24:44.041Z,26.10
2023-04-21T15:27:10.741Z,26.60
2023-04-21T15:29:37.921Z,26.40
2023-04-21T15:32:04.910Z,26.20
2023-04-21T15:34:31.665Z,26.50
2023-04-21T15:36:58.466Z,26.90
2023-04-21T15:39:25.299Z,26.40
2023-04-21T15:41:53.317Z,26.40
2023-04-21T15:44:20.245Z,26.70
2023-04-21T15:46:47.178Z,27.10
2023-04-21T15:49:13.948Z,27.10
2023-04-21T15:51:40.963Z,27.10
2023-04-21T15:54:07.724Z,27.10
2023-04-21T15:56:34.584Z,26.80
2023-04-21T15:59:01.463Z,26.60
2023-04-21T16:01:28.567Z,26.40
2023-04-21T16:03:55.626Z,26.50
2023-04-21T16:06:24.129Z,26.20
2023-04-21T16:08:51.113Z,26.10
2023-04-21T16:11:18.004Z,25.90
2023-04-21T16:13:45.255Z,26.40
2023-04-21T16:16:12.099Z,26.10
2023-04-21T16:18:39.053Z,25.80
2023-04-21T16:21:06.682Z,25.70
2023-04-21T16:23:33.517Z,25.10
2023-04-21T16:26:01.886Z,24.30
2023-04-21T16:28:28.824Z,24.10
2023-04-21T16:30:55.629Z,24.00
2023-04-21T16:33:22.560Z,24.10
2023-04-21T16:35:52.108Z,24.20
2023-04-21T16:38:19.256Z,23.90
2023-04-21T16:40:46.042Z,23.10
2023-04-21T16:43:12.768Z,22.60
2023-04-21T16:45:39.696Z,22.40
2023-04-21T16:48:06.917Z,22.10
2023-04-21T16:50:34.286Z,21.70
2023-04-21T16:53:01.361Z,21.40
2023-04-21T16:55:28.294Z,21.00
2023-04-21T16:57:55.093Z,20.90
2023-04-21T17:00:21.931Z,20.70
2023-04-21T17:02:48.804Z,20.50
2023-04-21T17:05:16.483Z,20.40
2023-04-21T17:07:45.018Z,20.20
2023-04-21T17:10:12.081Z,20.20
2023-04-21T17:12:39.262Z,20.10
2023-04-21T17:15:07.419Z,20.10
2023-04-21T17:17:42.916Z,20.00
2023-04-21T17:20:12.364Z,20.00
2023-04-21T17:22:39.813Z,19.80
2023-04-21T17:25:07.290Z,19.50
2023-04-21T17:27:36.001Z,19.40
2023-04-21T17:30:04.292Z,19.40
2023-04-21T17:32:33.422Z,19.20
2023-04-21T17:35:01.062Z,19.00
2023-04-21T17:37:28.928Z,18.90
2023-04-21T17:39:56.146Z,17.30
2023-04-21T17:42:23.268Z,16.30
2023-04-21T17:44:50.026Z,15.50
2023-04-21T17:47:16.841Z,15.20
2023-04-21T17:49:43.618Z,14.90
2023-04-21T17:52:10.370Z,14.70
2023-04-21T17:54:37.605Z,14.50
2023-04-21T17:57:04.607Z,14.60
2023-04-21T17:59:31.379Z,14.70
2023-04-21T18:01:58.947Z,14.70
2023-04-21T18:04:27.419Z,14.80
2023-04-21T18:06:54.380Z,15.00
2023-04-21T18:09:21.380Z,15.00
2023-04-21T18:11:48.169Z,15.10
2023-04-21T18:14:15.394Z,15.20
2023-04-21T18:16:42.312Z,15.20
2023-04-21T18:19:09.331Z,15.20
2023-04-21T18:21:36.186Z,15.10
2023-04-21T18:24:03.020Z,15.20
2023-04-21T18:26:29.808Z,15.10
2023-04-21T18:28:59.539Z,15.10
2023-04-21T18:31:28.529Z,15.00
2023-04-21T18:33:56.437Z,15.00
2023-04-21T18:36:23.471Z,14.80
2023-04-21T18:38:50.421Z,14.70
2023-04-21T18:41:17.658Z,14.60
2023-04-21T18:43:44.365Z,14.60
2023-04-21T18:46:11.360Z,14.60
2023-04-21T18:48:38.191Z,14.40
2023-04-21T18:51:05.045Z,14.40
2023-04-21T18:53:31.852Z,14.30
2023-04-21T18:55:58.632Z,14.00
2023-04-21T18:58:25.509Z,13.90
2023-04-21T19:00:52.253Z,13.90
2023-04-21T19:03:19.649Z,13.90
2023-04-21T19:05:46.831Z,13.90
2023-04-21T19:08:14.064Z,14.00
2023-04-21T19:10:40.908Z,13.80
2023-04-21T19:13:07.627Z,13.80
2023-04-21T19:15:35.263Z,13.80
2023-04-21T19:18:02.259Z,13.80
2023-04-21T19:20:29.856Z,13.80
2023-04-21T19:22:56.643Z,13.70
2023-04-21T19:25:23.488Z,13.70
2023-04-21T19:27:51.757Z,13.60
2023-04-21T19:30:18.962Z,13.50
2023-04-21T19:32:45.862Z,13.50
2023-04-21T19:35:12.613Z,13.40
2023-04-21T19:37:39.662Z,13.50
2023-04-21T19:40:08.073Z,13.50
2023-04-21T19:42:34.806Z,13.50
2023-04-21T19:45:01.889Z,13.50
2023-04-21T19:47:29.157Z,13.40
2023-04-21T19:49:56.000Z,13.30
2023-04-21T19:52:22.766Z,13.30
2023-04-21T19:54:49.567Z,13.20
2023-04-21T19:57:16.395Z,13.10
2023-04-21T19:59:43.115Z,13.10
2023-04-21T20:02:10.052Z,12.90
2023-04-21T20:04:37.475Z,13.00
2023-04-21T20:07:04.741Z,13.00
2023-04-21T20:09:31.632Z,12.90
2023-04-21T20:11:58.310Z,12.90
2023-04-21T20:14:25.296Z,12.70
2023-04-21T20:16:52.189Z,12.50
2023-04-21T20:19:22.784Z,12.50
2023-04-21T20:21:50.097Z,12.40
2023-04-21T20:24:17.506Z,12.20
2023-04-21T20:26:44.421Z,12.10
2023-04-21T20:29:11.533Z,12.10
2023-04-21T20:31:38.415Z,12.00
2023-04-21T20:34:05.473Z,12.00
2023-04-21T20:36:32.560Z,12.00
2023-04-21T20:39:00.618Z,12.00
2023-04-21T20:41:27.976Z,12.00
2023-04-21T20:43:56.321Z,12.10
2023-04-21T20:46:23.782Z,12.00
2023-04-21T20:48:51.621Z,12.10
2023-04-21T20:51:18.663Z,12.10
2023-04-21T20:53:45.781Z,12.00
2023-04-21T20:56:12.560Z,12.00
2023-04-21T20:58:39.299Z,12.00
2023-04-21T21:01:06.151Z,12.10
2023-04-21T21:03:33.308Z,12.20
2023-04-21T21:06:00.280Z,12.20
2023-04-21T21:08:28.116Z,12.00
2023-04-21T21:10:54.888Z,12.10
2023-04-21T21:13:21.748Z,12.10
2023-04-21T21:15:48.514Z,12.00
2023-04-21T21:18:15.387Z,12.00
2023-04-21T21:20:42.233Z,12.00
2023-04-21T21:23:09.156Z,11.90
2023-04-21T21:25:36.008Z,11.80
2023-04-21T21:28:02.876Z,11.80
2023-04-21T21:30:29.769Z,11.80
2023-04-21T21:32:57.215Z,11.80
2023-04-21T21:35:24.270Z,11.80
2023-04-21T21:37:51.003Z,11.70
2023-04-21T21:40:17.789Z,11.60
2023-04-21T21:42:44.511Z,11.70
2023-04-21T21:45:11.654Z,11.70
2023-04-21T21:47:41.789Z,11.70
2023-04-21T21:50:11.297Z,11.60
2023-04-21T21:52:38.049Z,11.60
2023-04-21T21:55:05.305Z,11.70
2023-04-21T21:57:32.022Z,11.80
2023-04-21T22:00:00.549Z,11.70
2023-04-21T22:02:27.680Z,11.70
2023-04-21T22:04:55.546Z,11.60
2023-04-21T22:07:22.393Z,11.60
2023-04-21T22:09:49.402Z,11.70
2023-04-21T22:12:16.128Z,11.70
2023-04-21T22:14:43.054Z,11.60
2023-04-21T22:17:10.426Z,11.70
2023-04-21T22:19:38.107Z,11.70
2023-04-21T22:22:05.120Z,11.80
2023-04-21T22:24:31.842Z,11.80
2023-04-21T22:26:58.592Z,11.90
2023-04-21T22:29:25.406Z,11.80
2023-04-21T22:31:52.463Z,11.70
2023-04-21T22:34:19.852Z,11.70
2023-04-21T22:36:46.800Z,11.70
2023-04-21T22:39:13.493Z,11.70
2023-04-21T22:41:40.690Z,11.80
2023-04-21T22:44:07.521Z,11.70
2023-04-21T22:46:34.585Z,11.80
2023-04-21T22:49:05.173Z,11.70
2023-04-21T22:51:32.645Z,11.70
2023-04-21T22:54:00.402Z,11.60
2023-04-21T22:56:29.964Z,11.60
2023-04-21T22:58:57.155Z,11.60
2023-04-21T23:01:24.014Z,11.60
2023-04-21T23:03:50.958Z,11.60
2023-04-21T23:06:17.922Z,11.60
2023-04-21T23:08:44.786Z,11.60
2023-04-21T23:11:11.735Z,11.60
2023-04-21T23:13:39.819Z,11.60
2023-04-21T23:16:06.816Z,11.60
2023-04-21T23:18:33.612Z,11.60
2023-04-21T23:21:00.955Z,11.60
2023-04-21T23:23:27.750Z,11.60
2023-04-21T23:25:54.579Z,11.60
2023-04-21T23:28:22.001Z,11.60
2023-04-21T23:30:48.859Z,11.60
2023-04-21T23:33:15.837Z,11.60
2023-04-21T23:35:42.855Z,11.60
2023-04-21T23:38:09.582Z,11.70
2023-04-21T23:40:36.442Z,11.70
2023-04-21T23:43:03.363Z,11.60
2023-04-21T23:45:30.465Z,11.70
2023-04-21T23:47:57.213Z,11.60
2023-04-21T23:50:24.154Z,11.60
2023-04-21T23:52:51.188Z,11.60
2023-04-21T23:55:18.377Z,11.50
2023-04-21T23:57:46.794Z,11.50
